sensor_id;sensor_type;location;lat;lon;timestamp;pressure;altitude;pressure_sealevel;temperature;humidity
10658;BME280;5377;43.276;26.930;2023-11-19T00:00:30;98587.16;;;1.65;100.00
10658;BME280;5377;43.276;26.930;2023-11-19T00:02:57;98561.59;;;1.66;100.00
10658;BME280;5377;43.276;26.930;2023-11-19T00:05:23;98560.44;;;1.68;100.00
10658;BME280;5377;43.276;26.930;2023-11-19T00:07:50;98588.84;;;1.74;100.00
10658;BME280;5377;43.276;26.930;2023-11-19T00:10:18;98564.56;;;1.63;100.00
10658;BME280;5377;43.276;26.930;2023-11-19T00:12:47;98572.03;;;1.75;100.00
10658;BME280;5377;43.276;26.930;2023-11-19T00:15:15;98587.03;;;1.75;100.00
10658;BME280;5377;43.276;26.930;2023-11-19T00:17:45;98599.91;;;1.78;100.00
10658;BME280;5377;43.276;26.930;2023-11-19T00:20:13;98583.41;;;1.76;100.00
10658;BME280;5377;43.276;26.930;2023-11-19T00:22:41;98609.00;;;1.75;100.00
10658;BME280;5377;43.276;26.930;2023-11-19T00:25:09;98623.53;;;1.79;100.00
10658;BME280;5377;43.276;26.930;2023-11-19T00:27:37;98587.88;;;1.75;100.00
10658;BME280;5377;43.276;26.930;2023-11-19T00:30:05;98606.84;;;1.79;100.00
10658;BME280;5377;43.276;26.930;2023-11-19T00:32:32;98632.44;;;1.78;100.00
10658;BME280;5377;43.276;26.930;2023-11-19T00:34:58;98631.91;;;1.75;100.00
10658;BME280;5377;43.276;26.930;2023-11-19T00:37:25;98635.53;;;1.74;100.00
10658;BME280;5377;43.276;26.930;2023-11-19T00:39:53;98630.09;;;1.75;100.00
10658;BME280;5377;43.276;26.930;2023-11-19T00:42:21;98639.84;;;1.75;100.00
10658;BME280;5377;43.276;26.930;2023-11-19T00:44:51;98626.63;;;1.75;100.00
10658;BME280;5377;43.276;26.930;2023-11-19T00:47:17;98625.00;;;1.74;100.00
10658;BME280;5377;43.276;26.930;2023-11-19T00:49:46;98636.97;;;1.68;100.00
10658;BME280;5377;43.276;26.930;2023-11-19T00:52:13;98656.13;;;1.70;100.00
10658;BME280;5377;43.276;26.930;2023-11-19T00:54:40;98643.91;;;1.69;100.00
10658;BME280;5377;43.276;26.930;2023-11-19T00:57:07;98655.31;;;1.70;100.00
10658;BME280;5377;43.276;26.930;2023-11-19T00:59:34;98647.53;;;1.68;100.00
10658;BME280;5377;43.276;26.930;2023-11-19T01:02:02;98647.38;;;1.70;100.00
10658;BME280;5377;43.276;26.930;2023-11-19T01:04:33;98661.41;;;1.70;100.00
10658;BME280;5377;43.276;26.930;2023-11-19T01:07:01;98658.09;;;1.68;100.00
10658;BME280;5377;43.276;26.930;2023-11-19T01:09:29;98670.00;;;1.72;100.00
10658;BME280;5377;43.276;26.930;2023-11-19T01:11:57;98665.03;;;1.69;100.00
10658;BME280;5377;43.276;26.930;2023-11-19T01:14:25;98659.75;;;1.69;100.00
10658;BME280;5377;43.276;26.930;2023-11-19T01:16:52;98667.34;;;1.72;100.00
10658;BME280;5377;43.276;26.930;2023-11-19T01:19:22;98657.41;;;1.58;100.00
10658;BME280;5377;43.276;26.930;2023-11-19T01:21:49;98665.03;;;1.69;100.00
10658;BME280;5377;43.276;26.930;2023-11-19T01:24:16;98670.31;;;1.69;100.00
10658;BME280;5377;43.276;26.930;2023-11-19T01:26:43;98668.97;;;1.65;100.00
10658;BME280;5377;43.276;26.930;2023-11-19T01:29:11;98667.16;;;1.66;100.00
10658;BME280;5377;43.276;26.930;2023-11-19T01:31:39;98684.50;;;1.68;100.00
10658;BME280;5377;43.276;26.930;2023-11-19T01:34:06;98692.56;;;1.67;100.00
10658;BME280;5377;43.276;26.930;2023-11-19T01:36:34;98694.53;;;1.65;100.00
10658;BME280;5377;43.276;26.930;2023-11-19T01:39:01;98681.66;;;1.62;100.00
10658;BME280;5377;43.276;26.930;2023-11-19T01:41:29;98696.34;;;1.64;100.00
10658;BME280;5377;43.276;26.930;2023-11-19T01:43:56;98692.22;;;1.62;100.00
10658;BME280;5377;43.276;26.930;2023-11-19T01:46:24;98694.38;;;1.66;100.00
10658;BME280;5377;43.276;26.930;2023-11-19T01:48:52;98681.31;;;1.56;100.00
10658;BME280;5377;43.276;26.930;2023-11-19T01:51:19;98696.50;;;1.63;100.00
10658;BME280;5377;43.276;26.930;2023-11-19T01:53:49;98688.91;;;1.60;100.00
10658;BME280;5377;43.276;26.930;2023-11-19T01:56:16;98680.84;;;1.61;100.00
10658;BME280;5377;43.276;26.930;2023-11-19T01:58:45;98681.19;;;1.66;100.00
10658;BME280;5377;43.276;26.930;2023-11-19T02:01:13;98683.16;;;1.64;100.00
10658;BME280;5377;43.276;26.930;2023-11-19T02:03:40;98680.19;;;1.67;100.00
10658;BME280;5377;43.276;26.930;2023-11-19T02:06:07;98708.06;;;1.62;100.00
10658;BME280;5377;43.276;26.930;2023-11-19T02:08:35;98688.03;;;1.77;100.00
10658;BME280;5377;43.276;26.930;2023-11-19T02:11:04;98686.88;;;1.79;100.00
10658;BME280;5377;43.276;26.930;2023-11-19T02:13:32;98668.81;;;1.67;100.00
10658;BME280;5377;43.276;26.930;2023-11-19T02:16:01;98661.72;;;1.67;100.00
10658;BME280;5377;43.276;26.930;2023-11-19T02:18:28;98685.22;;;1.78;100.00
10658;BME280;5377;43.276;26.930;2023-11-19T02:20:55;98705.22;;;1.81;100.00
10658;BME280;5377;43.276;26.930;2023-11-19T02:23:23;98700.75;;;1.81;100.00
10658;BME280;5377;43.276;26.930;2023-11-19T02:25:59;98691.53;;;1.85;100.00
10658;BME280;5377;43.276;26.930;2023-11-19T02:28:29;98716.13;;;1.86;100.00
10658;BME280;5377;43.276;26.930;2023-11-19T02:30:56;98689.22;;;1.82;100.00
10658;BME280;5377;43.276;26.930;2023-11-19T02:33:22;98714.28;;;1.78;100.00
10658;BME280;5377;43.276;26.930;2023-11-19T02:35:50;98712.94;;;1.74;100.00
10658;BME280;5377;43.276;26.930;2023-11-19T02:38:17;98711.13;;;1.75;100.00
10658;BME280;5377;43.276;26.930;2023-11-19T02:40:44;98715.84;;;1.71;100.00
10658;BME280;5377;43.276;26.930;2023-11-19T02:43:11;98717.50;;;1.72;100.00
10658;BME280;5377;43.276;26.930;2023-11-19T02:45:40;98730.19;;;1.69;100.00
10658;BME280;5377;43.276;26.930;2023-11-19T02:48:07;98712.38;;;1.71;100.00
10658;BME280;5377;43.276;26.930;2023-11-19T02:50:35;98727.03;;;1.65;100.00
10658;BME280;5377;43.276;26.930;2023-11-19T02:53:02;98696.91;;;1.42;100.00
10658;BME280;5377;43.276;26.930;2023-11-19T02:55:29;98729.94;;;1.54;100.00
10658;BME280;5377;43.276;26.930;2023-11-19T02:58:01;98725.50;;;1.54;100.00
10658;BME280;5377;43.276;26.930;2023-11-19T03:00:33;98735.22;;;1.54;100.00
10658;BME280;5377;43.276;26.930;2023-11-19T03:03:04;98726.97;;;1.49;100.00
10658;BME280;5377;43.276;26.930;2023-11-19T03:05:43;98715.06;;;1.45;100.00
10658;BME280;5377;43.276;26.930;2023-11-19T03:08:10;98728.25;;;1.45;100.00
10658;BME280;5377;43.276;26.930;2023-11-19T03:10:37;98725.63;;;1.45;100.00
10658;BME280;5377;43.276;26.930;2023-11-19T03:13:04;98734.81;;;1.41;100.00
10658;BME280;5377;43.276;26.930;2023-11-19T03:15:33;98733.53;;;1.45;100.00
10658;BME280;5377;43.276;26.930;2023-11-19T03:18:00;98730.38;;;1.41;100.00
10658;BME280;5377;43.276;26.930;2023-11-19T03:20:28;98738.44;;;1.40;100.00
10658;BME280;5377;43.276;26.930;2023-11-19T03:22:55;98743.72;;;1.40;100.00
10658;BME280;5377;43.276;26.930;2023-11-19T03:25:25;98741.22;;;1.38;100.00
10658;BME280;5377;43.276;26.930;2023-11-19T03:27:52;98743.72;;;1.40;100.00
10658;BME280;5377;43.276;26.930;2023-11-19T03:30:19;98745.66;;;1.38;100.00
10658;BME280;5377;43.276;26.930;2023-11-19T03:32:46;98759.31;;;1.33;100.00
10658;BME280;5377;43.276;26.930;2023-11-19T03:35:13;98747.94;;;1.33;100.00
10658;BME280;5377;43.276;26.930;2023-11-19T03:37:41;98765.41;;;1.34;100.00
10658;BME280;5377;43.276;26.930;2023-11-19T03:40:10;98773.69;;;1.39;100.00
10658;BME280;5377;43.276;26.930;2023-11-19T03:42:37;98760.66;;;1.37;100.00
10658;BME280;5377;43.276;26.930;2023-11-19T03:45:05;98770.38;;;1.37;100.00
10658;BME280;5377;43.276;26.930;2023-11-19T03:47:33;98764.84;;;1.40;100.00
10658;BME280;5377;43.276;26.930;2023-11-19T03:50:00;98763.13;;;1.39;100.00
10658;BME280;5377;43.276;26.930;2023-11-19T03:52:28;98774.00;;;1.36;100.00
10658;BME280;5377;43.276;26.930;2023-11-19T03:54:57;98776.22;;;1.40;100.00
10658;BME280;5377;43.276;26.930;2023-11-19T03:57:23;98780.94;;;1.37;100.00
10658;BME280;5377;43.276;26.930;2023-11-19T03:59:50;98794.44;;;1.34;100.00
10658;BME280;5377;43.276;26.930;2023-11-19T04:02:17;98783.28;;;1.40;100.00
10658;BME280;5377;43.276;26.930;2023-11-19T04:04:44;98779.69;;;1.41;100.00
10658;BME280;5377;43.276;26.930;2023-11-19T04:07:11;98790.06;;;1.42;100.00
10658;BME280;5377;43.276;26.930;2023-11-19T04:09:37;98792.72;;;1.42;100.00
10658;BME280;5377;43.276;26.930;2023-11-19T04:12:06;98784.25;;;1.39;100.00
10658;BME280;5377;43.276;26.930;2023-11-19T04:14:33;98807.88;;;1.40;100.00
10658;BME280;5377;43.276;26.930;2023-11-19T04:17:00;98787.59;;;1.41;100.00
10658;BME280;5377;43.276;26.930;2023-11-19T04:19:27;98787.13;;;1.45;100.00
10658;BME280;5377;43.276;26.930;2023-11-19T04:21:54;98781.91;;;1.36;100.00
10658;BME280;5377;43.276;26.930;2023-11-19T04:24:22;98788.13;;;1.44;100.00
10658;BME280;5377;43.276;26.930;2023-11-19T04:26:49;98802.66;;;1.48;100.00
10658;BME280;5377;43.276;26.930;2023-11-19T04:29:19;98802.03;;;1.37;100.00
10658;BME280;5377;43.276;26.930;2023-11-19T04:31:46;98802.72;;;1.39;100.00
10658;BME280;5377;43.276;26.930;2023-11-19T04:34:13;98821.97;;;1.49;100.00
10658;BME280;5377;43.276;26.930;2023-11-19T04:36:39;98812.06;;;1.51;100.00
10658;BME280;5377;43.276;26.930;2023-11-19T04:39:06;98825.94;;;1.53;100.00
10658;BME280;5377;43.276;26.930;2023-11-19T04:41:45;98816.00;;;1.47;100.00
10658;BME280;5377;43.276;26.930;2023-11-19T04:44:12;98819.47;;;1.47;100.00
10658;BME280;5377;43.276;26.930;2023-11-19T04:46:40;98806.94;;;1.49;100.00
10658;BME280;5377;43.276;26.930;2023-11-19T04:49:08;98804.47;;;1.48;100.00
10658;BME280;5377;43.276;26.930;2023-11-19T04:51:38;98791.75;;;1.43;100.00
10658;BME280;5377;43.276;26.930;2023-11-19T04:54:05;98790.44;;;1.47;100.00
10658;BME280;5377;43.276;26.930;2023-11-19T04:56:32;98774.75;;;1.46;100.00
10658;BME280;5377;43.276;26.930;2023-11-19T04:58:59;98742.31;;;1.10;100.00
10658;BME280;5377;43.276;26.930;2023-11-19T05:01:25;98799.03;;;1.49;100.00
10658;BME280;5377;43.276;26.930;2023-11-19T05:03:55;98791.47;;;1.54;100.00
10658;BME280;5377;43.276;26.930;2023-11-19T05:06:22;98799.25;;;1.56;100.00
10658;BME280;5377;43.276;26.930;2023-11-19T05:08:49;98800.22;;;1.55;100.00
10658;BME280;5377;43.276;26.930;2023-11-19T05:11:16;98782.41;;;1.57;100.00
10658;BME280;5377;43.276;26.930;2023-11-19T05:13:44;98789.34;;;1.58;100.00
10658;BME280;5377;43.276;26.930;2023-11-19T05:16:11;98800.91;;;1.57;100.00
10658;BME280;5377;43.276;26.930;2023-11-19T05:18:39;98777.75;;;1.51;100.00
10658;BME280;5377;43.276;26.930;2023-11-19T05:21:07;98796.59;;;1.56;100.00
10658;BME280;5377;43.276;26.930;2023-11-19T05:23:34;98799.91;;;1.58;100.00
10658;BME280;5377;43.276;26.930;2023-11-19T05:26:01;98798.25;;;1.57;100.00
10658;BME280;5377;43.276;26.930;2023-11-19T05:28:28;98795.63;;;1.57;100.00
10658;BME280;5377;43.276;26.930;2023-11-19T05:30:55;98796.97;;;1.61;100.00
10658;BME280;5377;43.276;26.930;2023-11-19T05:33:22;98811.50;;;1.65;100.00
10658;BME280;5377;43.276;26.930;2023-11-19T05:35:48;98795.69;;;1.65;100.00
10658;BME280;5377;43.276;26.930;2023-11-19T05:38:17;98803.28;;;1.68;100.00
10658;BME280;5377;43.276;26.930;2023-11-19T05:40:43;98799.34;;;1.72;100.00
10658;BME280;5377;43.276;26.930;2023-11-19T05:43:10;98794.78;;;1.74;100.00
10658;BME280;5377;43.276;26.930;2023-11-19T05:45:37;98803.63;;;1.73;100.00
10658;BME280;5377;43.276;26.930;2023-11-19T05:48:04;98807.25;;;1.72;100.00
10658;BME280;5377;43.276;26.930;2023-11-19T05:50:31;98802.38;;;1.77;100.00
10658;BME280;5377;43.276;26.930;2023-11-19T05:52:57;98793.94;;;1.74;100.00
10658;BME280;5377;43.276;26.930;2023-11-19T05:55:25;98789.50;;;1.74;100.00
10658;BME280;5377;43.276;26.930;2023-11-19T05:57:53;98802.53;;;1.76;100.00
10658;BME280;5377;43.276;26.930;2023-11-19T06:00:20;98795.81;;;1.81;100.00
10658;BME280;5377;43.276;26.930;2023-11-19T06:02:47;98810.00;;;1.80;100.00
10658;BME280;5377;43.276;26.930;2023-11-19T06:05:13;98810.97;;;1.79;100.00
10658;BME280;5377;43.276;26.930;2023-11-19T06:07:40;98816.41;;;1.78;100.00
10658;BME280;5377;43.276;26.930;2023-11-19T06:10:08;98813.91;;;1.76;100.00
10658;BME280;5377;43.276;26.930;2023-11-19T06:12:36;98819.72;;;1.80;100.00
10658;BME280;5377;43.276;26.930;2023-11-19T06:15:07;98819.88;;;1.78;100.00
10658;BME280;5377;43.276;26.930;2023-11-19T06:17:34;98814.13;;;1.83;100.00
10658;BME280;5377;43.276;26.930;2023-11-19T06:20:01;98809.81;;;1.82;100.00
10658;BME280;5377;43.276;26.930;2023-11-19T06:22:30;98806.09;;;1.93;100.00
10658;BME280;5377;43.276;26.930;2023-11-19T06:24:56;98814.00;;;1.93;100.00
10658;BME280;5377;43.276;26.930;2023-11-19T06:27:24;98820.94;;;1.94;100.00
10658;BME280;5377;43.276;26.930;2023-11-19T06:29:52;98810.38;;;1.94;100.00
10658;BME280;5377;43.276;26.930;2023-11-19T06:32:18;98821.16;;;2.00;100.00
10658;BME280;5377;43.276;26.930;2023-11-19T06:34:45;98814.38;;;1.98;100.00
10658;BME280;5377;43.276;26.930;2023-11-19T06:37:12;98817.16;;;1.96;100.00
10658;BME280;5377;43.276;26.930;2023-11-19T06:39:39;98807.59;;;1.95;100.00
10658;BME280;5377;43.276;26.930;2023-11-19T06:42:06;98818.66;;;1.99;100.00
10658;BME280;5377;43.276;26.930;2023-11-19T06:44:33;98819.03;;;2.04;100.00
10658;BME280;5377;43.276;26.930;2023-11-19T06:47:01;98828.91;;;2.02;100.00
10658;BME280;5377;43.276;26.930;2023-11-19T06:49:27;98820.63;;;1.97;100.00
10658;BME280;5377;43.276;26.930;2023-11-19T06:51:54;98826.91;;;1.96;100.00
10658;BME280;5377;43.276;26.930;2023-11-19T06:54:22;98836.69;;;2.03;100.00
10658;BME280;5377;43.276;26.930;2023-11-19T06:56:48;98849.06;;;2.03;100.00
10658;BME280;5377;43.276;26.930;2023-11-19T06:59:15;98853.78;;;2.17;100.00
10658;BME280;5377;43.276;26.930;2023-11-19T07:01:42;98807.19;;;1.82;100.00
10658;BME280;5377;43.276;26.930;2023-11-19T07:04:11;98853.59;;;2.10;100.00
10658;BME280;5377;43.276;26.930;2023-11-19T07:06:38;98871.31;;;2.18;100.00
10658;BME280;5377;43.276;26.930;2023-11-19T07:09:06;98870.31;;;2.19;100.00
10658;BME280;5377;43.276;26.930;2023-11-19T07:11:36;98870.63;;;2.16;100.00
10658;BME280;5377;43.276;26.930;2023-11-19T07:14:04;98871.00;;;2.21;100.00
10658;BME280;5377;43.276;26.930;2023-11-19T07:16:31;98863.56;;;2.25;100.00
10658;BME280;5377;43.276;26.930;2023-11-19T07:18:58;98871.19;;;2.28;100.00
10658;BME280;5377;43.276;26.930;2023-11-19T07:21:27;98863.41;;;2.26;100.00
10658;BME280;5377;43.276;26.930;2023-11-19T07:23:54;98865.47;;;2.40;100.00
10658;BME280;5377;43.276;26.930;2023-11-19T07:26:21;98862.16;;;2.38;100.00
10658;BME280;5377;43.276;26.930;2023-11-19T07:28:48;98872.94;;;2.45;100.00
10658;BME280;5377;43.276;26.930;2023-11-19T07:31:15;98869.63;;;2.43;100.00
10658;BME280;5377;43.276;26.930;2023-11-19T07:33:44;98882.22;;;2.49;100.00
10658;BME280;5377;43.276;26.930;2023-11-19T07:36:11;98895.28;;;2.50;100.00
10658;BME280;5377;43.276;26.930;2023-11-19T07:38:39;98889.72;;;2.62;100.00
10658;BME280;5377;43.276;26.930;2023-11-19T07:41:06;98879.09;;;2.54;100.00
10658;BME280;5377;43.276;26.930;2023-11-19T07:43:34;98893.13;;;2.88;100.00
10658;BME280;5377;43.276;26.930;2023-11-19T07:46:01;98828.25;;;2.60;100.00
10658;BME280;5377;43.276;26.930;2023-11-19T07:48:29;98890.22;;;3.07;100.00
10658;BME280;5377;43.276;26.930;2023-11-19T07:50:56;98891.53;;;3.11;100.00
10658;BME280;5377;43.276;26.930;2023-11-19T07:53:22;98878.19;;;3.13;100.00
10658;BME280;5377;43.276;26.930;2023-11-19T07:55:50;98885.66;;;3.26;100.00
10658;BME280;5377;43.276;26.930;2023-11-19T07:58:17;98876.88;;;3.33;100.00
10658;BME280;5377;43.276;26.930;2023-11-19T08:00:44;98884.50;;;3.36;100.00
10658;BME280;5377;43.276;26.930;2023-11-19T08:03:11;98880.88;;;3.45;100.00
10658;BME280;5377;43.276;26.930;2023-11-19T08:05:38;98894.81;;;3.48;100.00
10658;BME280;5377;43.276;26.930;2023-11-19T08:08:04;98905.56;;;3.62;100.00
10658;BME280;5377;43.276;26.930;2023-11-19T08:10:32;98888.03;;;3.61;100.00
10658;BME280;5377;43.276;26.930;2023-11-19T08:13:01;98901.09;;;3.79;100.00
10658;BME280;5377;43.276;26.930;2023-11-19T08:15:27;98898.13;;;3.74;100.00
10658;BME280;5377;43.276;26.930;2023-11-19T08:17:54;98890.50;;;3.63;100.00
10658;BME280;5377;43.276;26.930;2023-11-19T08:20:21;98897.94;;;3.67;100.00
10658;BME280;5377;43.276;26.930;2023-11-19T08:22:48;98890.16;;;3.66;100.00
10658;BME280;5377;43.276;26.930;2023-11-19T08:25:15;98907.91;;;3.82;100.00
10658;BME280;5377;43.276;26.930;2023-11-19T08:27:43;98893.66;;;3.91;100.00
10658;BME280;5377;43.276;26.930;2023-11-19T08:30:12;98899.63;;;3.93;100.00
10658;BME280;5377;43.276;26.930;2023-11-19T08:32:39;98906.41;;;3.95;100.00
10658;BME280;5377;43.276;26.930;2023-11-19T08:35:06;98923.78;;;3.98;100.00
10658;BME280;5377;43.276;26.930;2023-11-19T08:37:34;98919.47;;;4.13;100.00
10658;BME280;5377;43.276;26.930;2023-11-19T08:40:03;98917.81;;;4.28;100.00
10658;BME280;5377;43.276;26.930;2023-11-19T08:42:30;98926.44;;;4.22;100.00
10658;BME280;5377;43.276;26.930;2023-11-19T08:44:57;98924.78;;;4.05;100.00
10658;BME280;5377;43.276;26.930;2023-11-19T08:47:25;98930.75;;;4.07;100.00
10658;BME280;5377;43.276;26.930;2023-11-19T08:49:52;98943.16;;;4.15;100.00
10658;BME280;5377;43.276;26.930;2023-11-19T08:52:20;98943.00;;;4.32;100.00
10658;BME280;5377;43.276;26.930;2023-11-19T08:54:46;98949.44;;;4.54;100.00
10658;BME280;5377;43.276;26.930;2023-11-19T08:57:13;98941.78;;;4.67;100.00
10658;BME280;5377;43.276;26.930;2023-11-19T08:59:40;98932.00;;;4.68;100.00
10658;BME280;5377;43.276;26.930;2023-11-19T09:02:07;98916.78;;;4.46;100.00
10658;BME280;5377;43.276;26.930;2023-11-19T09:04:36;98932.69;;;4.54;100.00
10658;BME280;5377;43.276;26.930;2023-11-19T09:07:03;98891.66;;;4.01;100.00
10658;BME280;5377;43.276;26.930;2023-11-19T09:09:31;98924.41;;;4.41;100.00
10658;BME280;5377;43.276;26.930;2023-11-19T09:12:01;98940.91;;;4.75;100.00
10658;BME280;5377;43.276;26.930;2023-11-19T09:14:28;98948.38;;;5.19;100.00
10658;BME280;5377;43.276;26.930;2023-11-19T09:16:55;98945.00;;;5.95;99.40
10658;BME280;5377;43.276;26.930;2023-11-19T09:19:23;98933.84;;;7.26;92.42
10658;BME280;5377;43.276;26.930;2023-11-19T09:21:52;98935.59;;;7.91;86.54
10658;BME280;5377;43.276;26.930;2023-11-19T09:24:19;98927.84;;;8.66;82.23
10658;BME280;5377;43.276;26.930;2023-11-19T09:26:46;98904.97;;;9.26;76.78
10658;BME280;5377;43.276;26.930;2023-11-19T09:29:13;98913.97;;;9.86;72.77
10658;BME280;5377;43.276;26.930;2023-11-19T09:31:40;98911.34;;;10.66;67.58
10658;BME280;5377;43.276;26.930;2023-11-19T09:34:07;98907.63;;;10.80;66.58
10658;BME280;5377;43.276;26.930;2023-11-19T09:36:34;98907.09;;;11.16;64.33
10658;BME280;5377;43.276;26.930;2023-11-19T09:39:02;98899.06;;;11.61;61.42
10658;BME280;5377;43.276;26.930;2023-11-19T09:41:30;98879.53;;;11.85;59.71
10658;BME280;5377;43.276;26.930;2023-11-19T09:43:57;98899.09;;;11.03;60.98
10658;BME280;5377;43.276;26.930;2023-11-19T09:46:25;98894.19;;;9.67;64.36
10658;BME280;5377;43.276;26.930;2023-11-19T09:48:53;98906.88;;;8.98;68.32
10658;BME280;5377;43.276;26.930;2023-11-19T09:51:21;98899.34;;;7.96;73.38
10658;BME280;5377;43.276;26.930;2023-11-19T09:53:48;98895.16;;;7.44;78.00
10658;BME280;5377;43.276;26.930;2023-11-19T09:56:17;98894.53;;;7.28;83.68
10658;BME280;5377;43.276;26.930;2023-11-19T09:58:44;98902.25;;;7.23;87.28
10658;BME280;5377;43.276;26.930;2023-11-19T10:01:12;98903.53;;;6.61;88.08
10658;BME280;5377;43.276;26.930;2023-11-19T10:03:39;98891.09;;;6.53;92.30
10658;BME280;5377;43.276;26.930;2023-11-19T10:06:09;98899.53;;;6.28;95.65
10658;BME280;5377;43.276;26.930;2023-11-19T10:08:37;98906.63;;;6.50;97.89
10658;BME280;5377;43.276;26.930;2023-11-19T10:11:05;98907.34;;;6.44;98.41
10658;BME280;5377;43.276;26.930;2023-11-19T10:13:35;98906.44;;;6.37;99.43
10658;BME280;5377;43.276;26.930;2023-11-19T10:16:04;98923.94;;;6.31;100.00
10658;BME280;5377;43.276;26.930;2023-11-19T10:18:33;98926.53;;;6.16;100.00
10658;BME280;5377;43.276;26.930;2023-11-19T10:21:03;98922.84;;;6.40;100.00
10658;BME280;5377;43.276;26.930;2023-11-19T10:23:31;98918.47;;;6.62;100.00
10658;BME280;5377;43.276;26.930;2023-11-19T10:26:03;98920.09;;;6.48;100.00
10658;BME280;5377;43.276;26.930;2023-11-19T10:28:39;98915.16;;;6.75;100.00
10658;BME280;5377;43.276;26.930;2023-11-19T10:31:08;98899.31;;;6.67;100.00
10658;BME280;5377;43.276;26.930;2023-11-19T10:33:34;98916.28;;;6.95;100.00
10658;BME280;5377;43.276;26.930;2023-11-19T10:36:01;98910.06;;;7.39;100.00
10658;BME280;5377;43.276;26.930;2023-11-19T10:38:28;98893.97;;;7.90;100.00
10658;BME280;5377;43.276;26.930;2023-11-19T10:40:55;98889.50;;;8.39;99.89
10658;BME280;5377;43.276;26.930;2023-11-19T10:43:23;98880.88;;;8.72;97.05
10658;BME280;5377;43.276;26.930;2023-11-19T10:45:51;98872.44;;;8.68;95.42
10658;BME280;5377;43.276;26.930;2023-11-19T10:48:18;98874.53;;;8.80;94.27
10658;BME280;5377;43.276;26.930;2023-11-19T10:50:49;98874.34;;;9.35;92.12
10658;BME280;5377;43.276;26.930;2023-11-19T10:53:19;98867.09;;;10.30;87.28
10658;BME280;5377;43.276;26.930;2023-11-19T10:55:48;98848.81;;;10.98;82.30
10658;BME280;5377;43.276;26.930;2023-11-19T10:58:16;98864.44;;;11.08;78.77
10658;BME280;5377;43.276;26.930;2023-11-19T11:00:44;98862.63;;;11.40;77.89
10658;BME280;5377;43.276;26.930;2023-11-19T11:03:17;98797.03;;;11.80;74.91
10658;BME280;5377;43.276;26.930;2023-11-19T11:05:46;98835.06;;;12.64;72.12
10658;BME280;5377;43.276;26.930;2023-11-19T11:08:14;98839.06;;;13.09;69.05
10658;BME280;5377;43.276;26.930;2023-11-19T11:10:44;98845.47;;;13.45;68.72
10658;BME280;5377;43.276;26.930;2023-11-19T11:13:11;98837.78;;;13.90;67.04
10658;BME280;5377;43.276;26.930;2023-11-19T11:15:39;98833.94;;;14.21;63.82
10658;BME280;5377;43.276;26.930;2023-11-19T11:18:08;98832.09;;;14.69;62.04
10658;BME280;5377;43.276;26.930;2023-11-19T11:20:37;98828.22;;;15.16;59.38
10658;BME280;5377;43.276;26.930;2023-11-19T11:23:25;98827.91;;;15.41;58.55
10658;BME280;5377;43.276;26.930;2023-11-19T11:26:12;98830.69;;;15.46;58.31
10658;BME280;5377;43.276;26.930;2023-11-19T11:28:48;98840.50;;;14.95;58.48
10658;BME280;5377;43.276;26.930;2023-11-19T11:31:29;98823.38;;;15.58;57.56
10658;BME280;5377;43.276;26.930;2023-11-19T11:34:14;98832.72;;;15.11;57.69
10658;BME280;5377;43.276;26.930;2023-11-19T11:36:53;98837.50;;;15.49;56.89
10658;BME280;5377;43.276;26.930;2023-11-19T11:39:26;98823.97;;;15.60;56.48
10658;BME280;5377;43.276;26.930;2023-11-19T11:44:59;98831.53;;;15.47;56.19
10658;BME280;5377;43.276;26.930;2023-11-19T11:48:04;98811.44;;;16.00;55.89
10658;BME280;5377;43.276;26.930;2023-11-19T11:50:34;98823.75;;;16.46;52.96
10658;BME280;5377;43.276;26.930;2023-11-19T11:53:17;98792.59;;;15.43;53.97
10658;BME280;5377;43.276;26.930;2023-11-19T11:55:58;98817.78;;;15.48;53.72
10658;BME280;5377;43.276;26.930;2023-11-19T11:58:31;98819.81;;;15.41;54.11
10658;BME280;5377;43.276;26.930;2023-11-19T12:01:01;98813.06;;;16.01;53.49
10658;BME280;5377;43.276;26.930;2023-11-19T12:03:29;98821.72;;;15.57;52.97
10658;BME280;5377;43.276;26.930;2023-11-19T12:05:57;98821.53;;;14.79;54.82
10658;BME280;5377;43.276;26.930;2023-11-19T12:08:27;98833.22;;;14.14;56.37
10658;BME280;5377;43.276;26.930;2023-11-19T12:10:56;98837.72;;;13.67;57.10
10658;BME280;5377;43.276;26.930;2023-11-19T12:13:24;98838.25;;;12.11;60.96
10658;BME280;5377;43.276;26.930;2023-11-19T12:16:07;98848.84;;;11.36;66.11
10658;BME280;5377;43.276;26.930;2023-11-19T12:18:34;98858.34;;;10.87;69.16
10658;BME280;5377;43.276;26.930;2023-11-19T12:21:01;98859.25;;;10.15;74.26
10658;BME280;5377;43.276;26.930;2023-11-19T12:23:30;98850.16;;;10.62;75.97
10658;BME280;5377;43.276;26.930;2023-11-19T12:25:57;98843.53;;;10.72;74.22
10658;BME280;5377;43.276;26.930;2023-11-19T12:28:24;98849.78;;;11.55;71.22
10658;BME280;5377;43.276;26.930;2023-11-19T12:30:53;98844.56;;;11.98;67.87
10658;BME280;5377;43.276;26.930;2023-11-19T12:33:20;98848.53;;;12.39;65.50
10658;BME280;5377;43.276;26.930;2023-11-19T12:35:47;98833.56;;;13.04;63.32
10658;BME280;5377;43.276;26.930;2023-11-19T12:38:20;98839.47;;;13.31;60.65
10658;BME280;5377;43.276;26.930;2023-11-19T12:41:02;98844.28;;;13.41;60.98
10658;BME280;5377;43.276;26.930;2023-11-19T12:43:29;98846.72;;;12.76;61.49
10658;BME280;5377;43.276;26.930;2023-11-19T12:45:56;98846.84;;;12.63;63.23
10658;BME280;5377;43.276;26.930;2023-11-19T12:48:23;98831.28;;;11.47;64.83
10658;BME280;5377;43.276;26.930;2023-11-19T12:50:53;98846.75;;;11.00;68.25
10658;BME280;5377;43.276;26.930;2023-11-19T12:53:20;98844.34;;;10.85;71.76
10658;BME280;5377;43.276;26.930;2023-11-19T12:55:48;98847.88;;;11.24;71.15
10658;BME280;5377;43.276;26.930;2023-11-19T12:58:31;98854.50;;;11.21;70.50
10658;BME280;5377;43.276;26.930;2023-11-19T13:01:03;98854.84;;;10.87;71.71
10658;BME280;5377;43.276;26.930;2023-11-19T13:03:31;98837.03;;;10.28;74.68
10658;BME280;5377;43.276;26.930;2023-11-19T13:06:01;98860.50;;;10.13;76.60
10658;BME280;5377;43.276;26.930;2023-11-19T13:08:35;98876.06;;;9.69;79.12